createdAt,value
2019-05-19T00:02:19.207Z,6.28
2019-05-19T00:04:50.144Z,17.32
2019-05-19T00:07:21.050Z,15.68
2019-05-19T00:09:51.971Z,15.25
2019-05-19T00:12:22.984Z,23.75
2019-05-19T00:14:53.901Z,30.57
2019-05-19T00:17:24.798Z,27.52
2019-05-19T00:19:55.747Z,25.75
2019-05-19T00:22:27.097Z,13.62
2019-05-19T00:24:58.201Z,56.90
2019-05-19T00:27:29.249Z,112.65
2019-05-19T00:30:00.142Z,142.85
2019-05-19T00:32:31.180Z,56.25
2019-05-19T00:35:02.318Z,69.03
2019-05-19T00:37:33.449Z,80.38
2019-05-19T00:40:05.646Z,44.80
2019-05-19T00:42:36.576Z,91.12
2019-05-19T00:45:08.880Z,35.48
2019-05-19T00:47:40.090Z,32.17
2019-05-19T00:50:11.098Z,41.80
2019-05-19T00:52:42.087Z,41.80
2019-05-19T00:55:13.068Z,61.18
2019-05-19T00:57:44.396Z,30.23
2019-05-19T01:00:16.333Z,70.05
2019-05-19T01:02:47.277Z,40.38
2019-05-19T01:05:20.683Z,39.90
2019-05-19T01:07:50.711Z,40.25
2019-05-19T01:10:21.699Z,83.60
2019-05-19T01:12:52.669Z,40.98
2019-05-19T01:15:23.795Z,46.28
2019-05-19T01:17:54.722Z,17.27
2019-05-19T01:20:25.612Z,90.35
2019-05-19T01:22:56.569Z,114.40
2019-05-19T01:25:28.648Z,98.95
2019-05-19T01:27:59.569Z,34.33
2019-05-19T01:30:30.461Z,92.05
2019-05-19T01:33:01.438Z,37.67
2019-05-19T01:35:32.327Z,18.55
2019-05-19T01:38:03.273Z,65.32
2019-05-19T01:40:34.174Z,28.50
2019-05-19T01:43:05.195Z,39.40
2019-05-19T01:45:37.102Z,39.85
2019-05-19T01:48:08.052Z,43.65
2019-05-19T01:50:38.938Z,30.08
2019-05-19T01:53:09.884Z,11.65
2019-05-19T01:55:40.781Z,21.62
2019-05-19T01:58:11.707Z,88.82
2019-05-19T02:00:42.620Z,83.03
2019-05-19T02:03:13.550Z,58.25
2019-05-19T02:05:44.501Z,39.35
2019-05-19T02:08:16.424Z,32.88
2019-05-19T02:10:47.341Z,14.80
2019-05-19T02:13:18.344Z,20.65
2019-05-19T02:15:49.286Z,27.85
2019-05-19T02:18:20.205Z,45.12
2019-05-19T02:20:51.158Z,26.33
2019-05-19T02:23:22.187Z,11.48
2019-05-19T02:25:53.111Z,10.30
2019-05-19T02:28:24.095Z,43.55
2019-05-19T02:30:55.009Z,26.45
2019-05-19T02:33:25.949Z,69.35
2019-05-19T02:35:56.930Z,56.25
2019-05-19T02:38:28.894Z,158.80
2019-05-19T02:41:02.990Z,27.15
2019-05-19T02:43:34.561Z,102.25
2019-05-19T02:46:06.119Z,174.18
2019-05-19T02:48:38.563Z,114.75
2019-05-19T02:51:11.746Z,107.20
2019-05-19T02:53:44.587Z,61.55
2019-05-19T02:56:16.743Z,118.90
2019-05-19T02:58:48.385Z,46.63
2019-05-19T03:01:19.307Z,52.30
2019-05-19T03:03:50.258Z,52.53
2019-05-19T03:06:21.181Z,34.38
2019-05-19T03:08:52.151Z,100.40
2019-05-19T03:11:23.086Z,25.37
2019-05-19T03:13:54.009Z,61.92
2019-05-19T03:16:24.938Z,176.65
2019-05-19T03:18:55.845Z,200.10
2019-05-19T03:21:26.799Z,48.23
2019-05-19T03:23:57.779Z,220.63
2019-05-19T03:26:28.715Z,79.70
2019-05-19T03:28:59.617Z,39.48
2019-05-19T03:31:44.394Z,88.90
2019-05-19T03:34:15.408Z,25.97
2019-05-19T03:36:46.336Z,173.50
2019-05-19T03:39:17.240Z,128.18
2019-05-19T03:41:48.167Z,108.72
2019-05-19T03:44:19.068Z,108.75
2019-05-19T03:46:50.016Z,212.70
2019-05-19T03:49:20.923Z,86.08
2019-05-19T03:51:51.848Z,32.65
2019-05-19T03:54:22.747Z,159.57
2019-05-19T03:56:53.686Z,51.20
2019-05-19T03:59:24.591Z,134.00
2019-05-19T04:01:55.553Z,53.92
2019-05-19T04:04:26.432Z,144.80
2019-05-19T04:06:57.374Z,44.38
2019-05-19T04:09:28.278Z,257.32
2019-05-19T04:11:59.238Z,21.50
2019-05-19T04:14:30.127Z,175.38
2019-05-19T04:17:01.061Z,119.17
2019-05-19T04:19:31.959Z,192.75
2019-05-19T04:22:02.903Z,164.52
2019-05-19T04:24:36.508Z,237.50
2019-05-19T04:27:07.446Z,131.35
2019-05-19T04:29:39.561Z,199.47
2019-05-19T04:32:10.697Z,227.45
2019-05-19T04:34:41.603Z,162.07
2019-05-19T04:37:12.650Z,240.50
2019-05-19T04:39:43.566Z,168.70
2019-05-19T04:42:14.507Z,266.30
2019-05-19T04:44:45.422Z,226.20
2019-05-19T04:47:16.405Z,164.37
2019-05-19T04:49:47.299Z,170.43
2019-05-19T04:52:18.239Z,361.05
2019-05-19T04:54:49.122Z,71.00
2019-05-19T04:57:20.116Z,156.82
2019-05-19T04:59:51.071Z,54.15
2019-05-19T05:02:22.012Z,102.50
2019-05-19T05:04:52.944Z,72.82
2019-05-19T05:07:23.831Z,85.57
2019-05-19T05:09:54.725Z,55.50
2019-05-19T05:12:25.673Z,44.40
2019-05-19T05:14:56.573Z,78.33
2019-05-19T05:17:27.523Z,80.97
2019-05-19T05:19:58.419Z,29.07
2019-05-19T05:22:29.344Z,41.80
2019-05-19T05:25:01.234Z,18.50
2019-05-19T05:27:32.243Z,22.17
2019-05-19T05:30:03.738Z,25.20
2019-05-19T05:32:34.676Z,18.92
2019-05-19T05:35:07.107Z,54.53
2019-05-19T05:37:38.023Z,30.23
2019-05-19T05:40:09.474Z,32.05
2019-05-19T05:42:40.364Z,7.17
2019-05-19T05:45:12.871Z,17.48
2019-05-19T05:47:43.800Z,10.93
2019-05-19T05:50:14.692Z,43.58
2019-05-19T05:52:45.671Z,6.55
2019-05-19T05:55:16.546Z,13.98
2019-05-19T05:57:47.525Z,12.15
2019-05-19T06:00:18.388Z,24.30
2019-05-19T06:02:49.312Z,4.35
2019-05-19T06:05:20.229Z,20.48
2019-05-19T06:07:51.135Z,3.52
2019-05-19T06:10:22.056Z,1.60
2019-05-19T06:12:52.968Z,7.17
2019-05-19T06:15:24.021Z,2.08
2019-05-19T06:17:54.966Z,11.65
2019-05-19T06:20:25.854Z,7.15
2019-05-19T06:22:57.297Z,8.23
2019-05-19T06:25:28.348Z,4.33
2019-05-19T06:27:59.344Z,2.15
2019-05-19T06:30:30.428Z,3.12
2019-05-19T06:33:02.760Z,4.55
2019-05-19T06:35:33.637Z,4.70
2019-05-19T06:38:04.591Z,4.53
2019-05-19T06:40:36.279Z,7.45
2019-05-19T06:43:07.212Z,3.10
2019-05-19T06:45:38.107Z,5.22
2019-05-19T06:48:12.620Z,4.87
2019-05-19T06:50:45.928Z,4.17
2019-05-19T06:53:17.438Z,3.80
2019-05-19T06:55:48.318Z,7.37
2019-05-19T06:58:19.314Z,3.67
2019-05-19T07:00:50.240Z,5.15
2019-05-19T07:03:21.183Z,3.35
2019-05-19T07:05:52.929Z,3.15
2019-05-19T07:08:24.517Z,2.33
2019-05-19T07:10:55.407Z,3.27
2019-05-19T07:13:26.643Z,3.12
2019-05-19T07:15:57.536Z,3.70
2019-05-19T07:18:28.453Z,2.27
2019-05-19T07:20:59.373Z,2.33
2019-05-19T07:23:30.267Z,3.85
2019-05-19T07:26:01.191Z,3.83
2019-05-19T07:28:32.127Z,2.95
2019-05-19T07:31:03.058Z,3.17
2019-05-19T07:33:34.703Z,5.28
2019-05-19T07:36:05.699Z,3.12
2019-05-19T07:38:36.633Z,4.08
2019-05-19T07:41:07.492Z,6.05
2019-05-19T07:43:38.408Z,3.87
2019-05-19T07:46:09.305Z,3.42
2019-05-19T07:48:40.200Z,3.87
2019-05-19T07:51:11.123Z,3.30
2019-05-19T07:53:43.299Z,7.12
2019-05-19T07:56:16.635Z,6.37
2019-05-19T07:58:47.565Z,3.85
2019-05-19T08:01:18.446Z,6.33
2019-05-19T08:03:49.325Z,6.33
2019-05-19T08:06:20.236Z,8.55
2019-05-19T08:08:51.176Z,8.25
2019-05-19T08:11:22.124Z,5.25
2019-05-19T08:13:53.017Z,9.25
2019-05-19T08:16:23.955Z,9.80
2019-05-19T08:18:54.897Z,10.10
2019-05-19T08:21:25.815Z,6.75
2019-05-19T08:24:00.823Z,8.53
2019-05-19T08:26:29.327Z,6.85
2019-05-19T08:29:00.330Z,5.45
2019-05-19T08:31:31.287Z,7.40
2019-05-19T08:34:02.376Z,6.12
2019-05-19T08:36:33.337Z,9.13
2019-05-19T08:39:05.847Z,7.80
2019-05-19T08:41:36.775Z,6.17
2019-05-19T08:44:07.688Z,11.45
2019-05-19T08:46:38.643Z,8.38
2019-05-19T08:49:09.512Z,7.60
2019-05-19T08:51:40.458Z,9.40
2019-05-19T08:54:15.122Z,8.63
2019-05-19T08:56:43.858Z,8.30
2019-05-19T08:59:14.744Z,6.87
2019-05-19T09:01:46.661Z,7.40
2019-05-19T09:04:17.557Z,7.35
2019-05-19T09:06:49.508Z,12.75
2019-05-19T09:09:20.467Z,7.47
2019-05-19T09:11:51.386Z,10.28
2019-05-19T09:14:22.321Z,9.88
2019-05-19T09:16:53.280Z,6.97
2019-05-19T09:19:24.211Z,9.93
2019-05-19T09:21:55.126Z,7.50
2019-05-19T09:24:30.580Z,7.20
2019-05-19T09:26:58.645Z,7.78
2019-05-19T09:29:30.582Z,6.33
2019-05-19T09:32:01.585Z,6.72
2019-05-19T09:34:32.625Z,5.58
2019-05-19T09:37:03.553Z,7.78
2019-05-19T09:39:34.457Z,4.87
2019-05-19T09:42:05.377Z,7.75
2019-05-19T09:44:36.301Z,8.38
2019-05-19T09:47:07.252Z,5.72
2019-05-19T09:49:38.213Z,5.75
2019-05-19T09:52:09.199Z,6.65
2019-05-19T09:54:45.450Z,5.42
2019-05-19T09:57:12.630Z,7.17
2019-05-19T09:59:43.539Z,6.03
2019-05-19T10:02:14.448Z,6.25
2019-05-19T10:04:45.355Z,5.65
2019-05-19T10:07:16.287Z,7.28
2019-05-19T10:09:59.106Z,7.05
2019-05-19T10:12:30.312Z,6.12
2019-05-19T10:15:01.696Z,7.40
2019-05-19T10:17:33.638Z,5.83
2019-05-19T10:20:07.240Z,5.67
2019-05-19T10:22:38.974Z,5.28
2019-05-19T10:25:21.607Z,5.67
2019-05-19T10:27:43.468Z,4.65
2019-05-19T10:30:15.089Z,8.68
2019-05-19T10:32:46.005Z,8.48
2019-05-19T10:35:17.084Z,8.55
2019-05-19T10:37:47.986Z,9.00
2019-05-19T10:40:19.764Z,9.25
2019-05-19T10:42:50.717Z,9.43
2019-05-19T10:45:22.046Z,10.68
2019-05-19T10:47:53.080Z,9.13
2019-05-19T10:50:24.052Z,9.63
2019-05-19T10:52:55.023Z,8.53
2019-05-19T10:55:36.056Z,11.28
2019-05-19T10:58:01.406Z,13.85
2019-05-19T11:00:34.083Z,12.00
2019-05-19T11:03:07.332Z,11.45
2019-05-19T11:05:38.557Z,9.08
2019-05-19T11:08:10.880Z,10.75
2019-05-19T11:10:42.503Z,20.82
2019-05-19T11:13:13.484Z,13.38
2019-05-19T11:15:47.725Z,15.10
2019-05-19T11:18:18.752Z,11.75
2019-05-19T11:20:49.818Z,11.90
2019-05-19T11:23:21.353Z,10.55
2019-05-19T11:25:52.275Z,10.80
2019-05-19T11:28:23.202Z,10.90
2019-05-19T11:30:54.129Z,12.20
2019-05-19T11:33:25.079Z,11.88
2019-05-19T11:35:56.057Z,11.10
2019-05-19T11:38:26.978Z,10.03
2019-05-19T11:41:00.648Z,8.43
2019-05-19T11:43:32.539Z,10.85
2019-05-19T11:46:03.477Z,11.48
2019-05-19T11:48:34.389Z,11.57
2019-05-19T11:51:05.319Z,10.18
2019-05-19T11:53:37.215Z,9.60
2019-05-19T11:56:11.389Z,11.53
2019-05-19T11:58:40.711Z,16.05
2019-05-19T12:01:11.682Z,16.60
2019-05-19T12:03:42.599Z,16.65
2019-05-19T12:06:13.557Z,16.05
2019-05-19T12:08:44.510Z,14.70
2019-05-19T12:11:15.466Z,15.63
2019-05-19T12:13:46.397Z,15.20
2019-05-19T12:16:17.386Z,19.92
2019-05-19T12:18:48.286Z,15.88
2019-05-19T12:21:20.085Z,17.23
2019-05-19T12:23:51.062Z,17.12
2019-05-19T12:26:23.541Z,17.32
2019-05-19T12:28:54.750Z,18.80
2019-05-19T12:31:25.690Z,23.80
2019-05-19T12:33:56.730Z,18.80
2019-05-19T12:36:27.665Z,20.15
2019-05-19T12:38:58.626Z,24.60
2019-05-19T12:41:29.571Z,21.45
2019-05-19T12:44:00.569Z,19.50
2019-05-19T12:46:31.526Z,21.85
2019-05-19T12:49:02.503Z,19.55
2019-05-19T12:51:33.453Z,21.05
2019-05-19T12:54:04.605Z,20.68
2019-05-19T12:56:39.740Z,19.40
2019-05-19T12:59:08.164Z,18.55
2019-05-19T13:01:39.127Z,16.70
2019-05-19T13:04:10.055Z,15.65
2019-05-19T13:06:41.020Z,14.85
2019-05-19T13:09:12.537Z,17.10
2019-05-19T13:11:43.502Z,12.82
2019-05-19T13:14:14.456Z,15.90
2019-05-19T13:16:45.408Z,13.80
2019-05-19T13:19:16.389Z,16.90
2019-05-19T13:21:47.370Z,17.12
2019-05-19T13:24:18.324Z,17.50
2019-05-19T13:26:56.414Z,17.67
2019-05-19T13:29:21.858Z,18.52
2019-05-19T13:31:52.810Z,20.23
2019-05-19T13:34:23.745Z,15.85
2019-05-19T13:36:54.756Z,12.78
2019-05-19T13:39:25.671Z,13.65
2019-05-19T13:41:56.611Z,11.75
2019-05-19T13:44:27.527Z,11.22
2019-05-19T13:46:58.474Z,11.53
2019-05-19T13:49:30.359Z,9.35
2019-05-19T13:52:01.415Z,9.73
2019-05-19T13:54:33.325Z,8.68
2019-05-19T13:57:12.294Z,9.40
2019-05-19T13:59:36.762Z,7.12
2019-05-19T14:02:07.783Z,9.83
2019-05-19T14:04:38.670Z,7.62
2019-05-19T14:07:09.702Z,7.45
2019-05-19T14:09:40.663Z,8.95
2019-05-19T14:12:11.578Z,7.90
2019-05-19T14:14:42.449Z,7.30
2019-05-19T14:17:13.371Z,8.18
2019-05-19T14:19:44.255Z,7.00
2019-05-19T14:22:15.161Z,7.85
2019-05-19T14:24:46.182Z,7.83
2019-05-19T14:27:28.914Z,8.65
2019-05-19T14:29:49.600Z,12.03
2019-05-19T14:32:20.570Z,8.50
2019-05-19T14:34:51.492Z,9.25
2019-05-19T14:37:22.411Z,9.38
2019-05-19T14:39:53.480Z,10.78
2019-05-19T14:42:44.094Z,9.60
2019-05-19T14:45:15.724Z,9.20
2019-05-19T14:47:46.621Z,10.90
2019-05-19T14:50:17.767Z,10.00
2019-05-19T14:52:48.656Z,9.23
2019-05-19T14:55:20.684Z,11.05
2019-05-19T14:57:51.790Z,7.90
2019-05-19T15:00:23.008Z,9.43
2019-05-19T15:02:53.898Z,10.65
2019-05-19T15:05:24.868Z,10.53
2019-05-19T15:07:55.771Z,13.58
2019-05-19T15:10:26.728Z,11.40
2019-05-19T15:12:57.625Z,11.08
2019-05-19T15:15:28.648Z,13.90
2019-05-19T15:17:59.591Z,12.05
2019-05-19T15:20:32.411Z,15.60
2019-05-19T15:23:03.507Z,14.40
2019-05-19T15:25:34.453Z,15.75
2019-05-19T15:28:05.738Z,14.70
2019-05-19T15:30:36.801Z,14.70
2019-05-19T15:33:07.749Z,16.17
2019-05-19T15:35:38.721Z,17.37
2019-05-19T15:38:09.654Z,13.62
2019-05-19T15:40:40.621Z,12.95
2019-05-19T15:43:11.567Z,11.93
2019-05-19T15:45:42.507Z,10.90
2019-05-19T15:48:13.442Z,11.05
2019-05-19T15:50:44.399Z,11.83
2019-05-19T15:53:15.322Z,8.93
2019-05-19T15:55:47.278Z,8.20
2019-05-19T15:58:18.185Z,7.33
2019-05-19T16:00:49.116Z,8.00
2019-05-19T16:03:20.027Z,6.53
2019-05-19T16:05:50.957Z,7.75
2019-05-19T16:08:21.833Z,8.08
2019-05-19T16:10:52.747Z,6.70
2019-05-19T16:13:23.673Z,6.37
2019-05-19T16:15:54.591Z,7.70
2019-05-19T16:18:25.520Z,6.97
2019-05-19T16:20:56.856Z,7.83
2019-05-19T16:23:27.775Z,7.22
2019-05-19T16:25:58.683Z,6.22
2019-05-19T16:28:31.011Z,6.30
2019-05-19T16:31:02.135Z,5.03
2019-05-19T16:33:33.053Z,6.72
2019-05-19T16:36:03.990Z,5.97
2019-05-19T16:38:34.902Z,4.67
2019-05-19T16:41:05.823Z,5.45
2019-05-19T16:43:36.745Z,6.25
2019-05-19T16:46:07.667Z,8.33
2019-05-19T16:48:38.615Z,6.17
2019-05-19T16:51:09.541Z,6.58
2019-05-19T16:53:40.437Z,5.70
2019-05-19T16:56:11.364Z,6.15
2019-05-19T16:58:45.216Z,7.35
2019-05-19T17:01:14.815Z,8.40
2019-05-19T17:03:45.740Z,7.95
2019-05-19T17:06:16.648Z,7.08
2019-05-19T17:08:47.538Z,9.10
2019-05-19T17:11:18.831Z,7.28
2019-05-19T17:13:49.972Z,7.87
2019-05-19T17:16:21.313Z,6.62
2019-05-19T17:18:52.256Z,8.40
2019-05-19T17:21:23.169Z,8.63
2019-05-19T17:23:54.071Z,9.38
2019-05-19T17:26:24.991Z,7.65
2019-05-19T17:29:00.594Z,7.83
2019-05-19T17:31:32.779Z,7.42
2019-05-19T17:34:03.687Z,7.80
2019-05-19T17:36:34.608Z,7.83
2019-05-19T17:39:06.706Z,8.53
2019-05-19T17:41:37.614Z,8.53
2019-05-19T17:44:08.486Z,6.12
2019-05-19T17:46:39.413Z,6.87
2019-05-19T17:49:10.304Z,9.40
2019-05-19T17:51:41.227Z,7.15
2019-05-19T17:54:15.050Z,5.45
2019-05-19T17:56:50.932Z,6.58
2019-05-19T17:59:28.128Z,5.80
2019-05-19T18:02:00.767Z,5.42
2019-05-19T18:04:32.592Z,6.83
2019-05-19T18:07:06.416Z,5.20
2019-05-19T18:09:40.713Z,5.20
2019-05-19T18:12:15.747Z,4.35
2019-05-19T18:14:52.693Z,4.00
2019-05-19T18:17:25.510Z,5.08
2019-05-19T18:20:03.525Z,4.90
2019-05-19T18:22:36.035Z,6.28
2019-05-19T18:25:10.647Z,4.05
2019-05-19T18:27:45.465Z,4.58
2019-05-19T18:32:52.985Z,6.10
2019-05-19T18:35:25.217Z,4.10
2019-05-19T18:37:57.541Z,4.95
2019-05-19T18:40:35.232Z,4.80
2019-05-19T18:43:10.132Z,5.10
2019-05-19T18:45:44.196Z,5.73
2019-05-19T18:48:19.649Z,6.33
2019-05-19T18:51:02.893Z,4.70
2019-05-19T18:53:33.307Z,6.87
2019-05-19T18:56:11.080Z,6.05
2019-05-19T18:58:45.586Z,4.87
2019-05-19T19:01:20.624Z,5.05
2019-05-19T19:03:54.979Z,5.62
2019-05-19T19:06:30.375Z,5.78
2019-05-19T19:09:07.287Z,4.92
2019-05-19T19:11:41.254Z,5.70
2019-05-19T19:14:19.356Z,5.55
2019-05-19T19:16:52.828Z,6.95
2019-05-19T19:19:24.863Z,5.50
2019-05-19T19:21:55.784Z,5.40
2019-05-19T19:24:29.741Z,6.53
2019-05-19T19:27:05.251Z,8.48
2019-05-19T19:29:39.497Z,6.58
2019-05-19T19:32:13.374Z,5.12
2019-05-19T19:34:48.459Z,6.75
2019-05-19T19:39:54.106Z,5.60
2019-05-19T19:42:31.145Z,5.80
2019-05-19T19:45:05.069Z,6.72
2019-05-19T19:47:38.245Z,5.78
2019-05-19T19:50:11.639Z,10.63
2019-05-19T19:52:44.833Z,6.05
2019-05-19T19:55:15.734Z,8.65
2019-05-19T19:57:46.664Z,8.00
2019-05-19T20:00:29.796Z,7.80
2019-05-19T20:03:00.713Z,7.72
2019-05-19T20:05:31.684Z,7.03
2019-05-19T20:08:02.765Z,6.33
2019-05-19T20:10:33.940Z,6.03
2019-05-19T20:13:17.939Z,6.92
2019-05-19T20:15:49.619Z,11.97
2019-05-19T20:18:20.862Z,5.72
2019-05-19T20:20:53.696Z,5.67
2019-05-19T20:23:25.527Z,8.55
2019-05-19T20:26:00.383Z,8.90
2019-05-19T20:28:34.683Z,8.53
2019-05-19T21:24:39.780Z,16.77
2019-05-19T21:27:06.914Z,6.75
2019-05-19T21:29:34.032Z,8.08
2019-05-19T21:32:01.089Z,9.75
2019-05-19T21:34:28.099Z,8.50
2019-05-19T21:36:56.223Z,8.65
2019-05-19T21:39:23.227Z,9.85
2019-05-19T21:41:50.299Z,10.88
2019-05-19T21:44:17.352Z,10.15
2019-05-19T21:46:44.415Z,4.78
2019-05-19T21:49:11.468Z,7.72
2019-05-19T21:51:38.489Z,9.53
2019-05-19T21:54:05.983Z,12.45
2019-05-19T21:56:32.961Z,11.22
2019-05-19T21:59:00.023Z,7.58
2019-05-19T22:01:27.021Z,6.20
2019-05-19T22:03:54.105Z,8.10
2019-05-19T22:06:22.899Z,9.08
2019-05-19T22:08:50.033Z,9.38
2019-05-19T22:11:16.994Z,9.95
2019-05-19T22:13:45.027Z,7.28
2019-05-19T22:16:13.549Z,7.78
2019-05-19T22:18:40.902Z,9.73
2019-05-19T22:21:07.913Z,8.85
2019-05-19T22:23:34.951Z,17.30
2019-05-19T22:26:01.943Z,8.48
2019-05-19T22:28:28.960Z,12.35
2019-05-19T22:30:55.992Z,8.60
2019-05-19T22:33:23.129Z,16.93
2019-05-19T22:35:50.123Z,14.85
2019-05-19T22:38:17.125Z,8.60
2019-05-19T22:40:44.116Z,6.90
2019-05-19T22:43:11.178Z,14.13
2019-05-19T22:45:38.262Z,12.60
2019-05-19T22:48:05.326Z,12.03
2019-05-19T22:50:32.376Z,22.17
2019-05-19T22:52:59.415Z,17.52
2019-05-19T22:55:26.407Z,20.77
2019-05-19T22:57:53.422Z,11.00
2019-05-19T23:00:21.342Z,20.32
2019-05-19T23:02:48.508Z,11.78
2019-05-19T23:05:15.786Z,13.83
2019-05-19T23:07:42.847Z,14.70
2019-05-19T23:10:11.930Z,17.80
2019-05-19T23:12:38.980Z,13.10
2019-05-19T23:15:06.769Z,10.93
2019-05-19T23:17:33.884Z,8.58
2019-05-19T23:20:02.631Z,12.98
2019-05-19T23:22:29.679Z,12.35
2019-05-19T23:24:56.637Z,12.18
2019-05-19T23:27:23.690Z,10.28
2019-05-19T23:29:50.770Z,8.33
2019-05-19T23:32:17.764Z,20.45
2019-05-19T23:34:44.812Z,20.20
2019-05-19T23:37:11.827Z,12.73
2019-05-19T23:39:38.940Z,6.42
2019-05-19T23:42:06.000Z,16.52
2019-05-19T23:44:33.137Z,13.88
2019-05-19T23:47:00.115Z,12.60
2019-05-19T23:49:27.199Z,15.18
2019-05-19T23:51:54.213Z,14.50
2019-05-19T23:54:21.513Z,11.53
2019-05-19T23:56:48.526Z,8.10
2019-05-19T23:59:15.648Z,13.28
